sensor_id;sensor_type;location;lat;lon;timestamp;temperature;humidity
31661;DHT22;18267;52.234;7.444;2022-09-09T00:02:24;16.80;99.90
31661;DHT22;18267;52.234;7.444;2022-09-09T00:05:04;16.80;99.90
31661;DHT22;18267;52.234;7.444;2022-09-09T00:07:45;16.80;99.90
31661;DHT22;18267;52.234;7.444;2022-09-09T00:10:21;16.80;99.90
31661;DHT22;18267;52.234;7.444;2022-09-09T00:12:53;16.90;99.90
31661;DHT22;18267;52.234;7.444;2022-09-09T00:15:26;16.90;99.90
31661;DHT22;18267;52.234;7.444;2022-09-09T00:21:05;16.80;99.90
31661;DHT22;18267;52.234;7.444;2022-09-09T00:23:39;16.90;99.90
31661;DHT22;18267;52.234;7.444;2022-09-09T00:29:28;16.80;99.90
31661;DHT22;18267;52.234;7.444;2022-09-09T00:32:09;16.80;99.90
31661;DHT22;18267;52.234;7.444;2022-09-09T00:34:56;16.90;99.90
31661;DHT22;18267;52.234;7.444;2022-09-09T00:37:25;16.90;99.90
31661;DHT22;18267;52.234;7.444;2022-09-09T00:39:55;16.80;99.90
31661;DHT22;18267;52.234;7.444;2022-09-09T00:42:40;16.80;99.90
31661;DHT22;18267;52.234;7.444;2022-09-09T00:47:40;16.80;99.90
31661;DHT22;18267;52.234;7.444;2022-09-09T00:52:45;16.90;99.90
31661;DHT22;18267;52.234;7.444;2022-09-09T00:58:07;17.00;99.90
31661;DHT22;18267;52.234;7.444;2022-09-09T01:00:49;17.00;99.90
31661;DHT22;18267;52.234;7.444;2022-09-09T01:05:58;17.10;99.90
31661;DHT22;18267;52.234;7.444;2022-09-09T01:11:22;16.90;99.90
31661;DHT22;18267;52.234;7.444;2022-09-09T01:13:58;17.00;99.90
31661;DHT22;18267;52.234;7.444;2022-09-09T01:16:28;17.00;99.90
31661;DHT22;18267;52.234;7.444;2022-09-09T01:18:56;17.00;99.90
31661;DHT22;18267;52.234;7.444;2022-09-09T01:26:41;17.00;99.90
31661;DHT22;18267;52.234;7.444;2022-09-09T01:29:08;17.00;99.90
31661;DHT22;18267;52.234;7.444;2022-09-09T01:31:41;17.00;99.90
31661;DHT22;18267;52.234;7.444;2022-09-09T01:34:13;16.90;99.90
31661;DHT22;18267;52.234;7.444;2022-09-09T01:39:12;16.90;99.90
31661;DHT22;18267;52.234;7.444;2022-09-09T01:41:38;16.90;99.90
31661;DHT22;18267;52.234;7.444;2022-09-09T01:44:04;16.80;99.90
31661;DHT22;18267;52.234;7.444;2022-09-09T01:46:30;16.80;99.90
31661;DHT22;18267;52.234;7.444;2022-09-09T01:48:57;16.80;99.90
31661;DHT22;18267;52.234;7.444;2022-09-09T01:51:23;16.80;99.90
31661;DHT22;18267;52.234;7.444;2022-09-09T01:53:49;16.80;99.90
31661;DHT22;18267;52.234;7.444;2022-09-09T02:04:30;16.70;99.90
31661;DHT22;18267;52.234;7.444;2022-09-09T02:06:57;16.60;99.90
31661;DHT22;18267;52.234;7.444;2022-09-09T02:09:24;16.60;99.90
31661;DHT22;18267;52.234;7.444;2022-09-09T02:12:05;16.50;99.90
31661;DHT22;18267;52.234;7.444;2022-09-09T02:14:37;16.50;99.90
31661;DHT22;18267;52.234;7.444;2022-09-09T02:17:10;16.50;99.90
31661;DHT22;18267;52.234;7.444;2022-09-09T02:19:48;16.50;99.90
31661;DHT22;18267;52.234;7.444;2022-09-09T02:22:17;16.50;99.90
31661;DHT22;18267;52.234;7.444;2022-09-09T02:24:44;16.50;99.90
31661;DHT22;18267;52.234;7.444;2022-09-09T02:27:12;16.50;99.90
31661;DHT22;18267;52.234;7.444;2022-09-09T02:29:40;16.40;99.90
31661;DHT22;18267;52.234;7.444;2022-09-09T02:32:10;16.40;99.90
31661;DHT22;18267;52.234;7.444;2022-09-09T02:34:40;16.40;99.90
31661;DHT22;18267;52.234;7.444;2022-09-09T02:37:09;16.40;99.90
31661;DHT22;18267;52.234;7.444;2022-09-09T02:39:36;16.40;99.90
31661;DHT22;18267;52.234;7.444;2022-09-09T02:42:03;16.40;99.90
31661;DHT22;18267;52.234;7.444;2022-09-09T02:44:29;16.50;99.90
31661;DHT22;18267;52.234;7.444;2022-09-09T02:50:19;16.40;99.90
31661;DHT22;18267;52.234;7.444;2022-09-09T02:55:48;16.40;99.90
31661;DHT22;18267;52.234;7.444;2022-09-09T02:58:17;16.50;99.90
31661;DHT22;18267;52.234;7.444;2022-09-09T03:00:48;16.50;99.90
31661;DHT22;18267;52.234;7.444;2022-09-09T03:03:15;16.50;99.90
31661;DHT22;18267;52.234;7.444;2022-09-09T03:05:41;16.50;99.90
31661;DHT22;18267;52.234;7.444;2022-09-09T03:08:07;16.40;99.90
31661;DHT22;18267;52.234;7.444;2022-09-09T03:10:33;16.40;99.90
31661;DHT22;18267;52.234;7.444;2022-09-09T03:13:00;16.50;99.90
31661;DHT22;18267;52.234;7.444;2022-09-09T03:15:25;16.50;99.90
31661;DHT22;18267;52.234;7.444;2022-09-09T03:17:55;16.40;99.90
31661;DHT22;18267;52.234;7.444;2022-09-09T03:20:23;16.30;99.90
31661;DHT22;18267;52.234;7.444;2022-09-09T03:22:48;16.30;99.90
31661;DHT22;18267;52.234;7.444;2022-09-09T03:25:14;16.40;99.90
31661;DHT22;18267;52.234;7.444;2022-09-09T03:27:39;16.30;99.90
31661;DHT22;18267;52.234;7.444;2022-09-09T03:30:06;16.30;99.90
31661;DHT22;18267;52.234;7.444;2022-09-09T03:32:33;16.30;99.90
31661;DHT22;18267;52.234;7.444;2022-09-09T03:34:59;16.30;99.90
31661;DHT22;18267;52.234;7.444;2022-09-09T03:37:24;16.30;99.90
31661;DHT22;18267;52.234;7.444;2022-09-09T03:39:50;16.30;99.90
31661;DHT22;18267;52.234;7.444;2022-09-09T03:42:16;16.20;99.90
31661;DHT22;18267;52.234;7.444;2022-09-09T03:44:45;16.20;99.90
31661;DHT22;18267;52.234;7.444;2022-09-09T03:47:19;16.20;99.90
31661;DHT22;18267;52.234;7.444;2022-09-09T03:49:45;16.30;99.90
31661;DHT22;18267;52.234;7.444;2022-09-09T03:52:11;16.30;99.90
31661;DHT22;18267;52.234;7.444;2022-09-09T03:54:37;16.30;99.90
31661;DHT22;18267;52.234;7.444;2022-09-09T03:57:03;16.30;99.90
31661;DHT22;18267;52.234;7.444;2022-09-09T03:59:30;16.40;99.90
31661;DHT22;18267;52.234;7.444;2022-09-09T04:01:56;16.30;99.90
31661;DHT22;18267;52.234;7.444;2022-09-09T04:04:24;16.30;99.90
31661;DHT22;18267;52.234;7.444;2022-09-09T04:06:49;16.40;99.90
31661;DHT22;18267;52.234;7.444;2022-09-09T04:09:16;16.40;99.90
31661;DHT22;18267;52.234;7.444;2022-09-09T04:11:41;16.30;99.90
31661;DHT22;18267;52.234;7.444;2022-09-09T04:14:07;16.30;99.90
31661;DHT22;18267;52.234;7.444;2022-09-09T04:16:33;16.30;99.90
31661;DHT22;18267;52.234;7.444;2022-09-09T04:18:59;16.30;99.90
31661;DHT22;18267;52.234;7.444;2022-09-09T04:21:26;16.30;99.90
31661;DHT22;18267;52.234;7.444;2022-09-09T04:23:51;16.30;99.90
31661;DHT22;18267;52.234;7.444;2022-09-09T04:26:17;16.30;99.90
31661;DHT22;18267;52.234;7.444;2022-09-09T04:28:42;16.20;99.90
31661;DHT22;18267;52.234;7.444;2022-09-09T04:31:12;16.20;99.90
31661;DHT22;18267;52.234;7.444;2022-09-09T04:33:39;16.30;99.90
31661;DHT22;18267;52.234;7.444;2022-09-09T04:36:05;16.30;99.90
31661;DHT22;18267;52.234;7.444;2022-09-09T04:38:31;16.30;99.90
31661;DHT22;18267;52.234;7.444;2022-09-09T04:40:57;16.30;99.90
31661;DHT22;18267;52.234;7.444;2022-09-09T04:43:22;16.30;99.90
31661;DHT22;18267;52.234;7.444;2022-09-09T04:45:50;16.30;99.90
31661;DHT22;18267;52.234;7.444;2022-09-09T04:48:16;16.30;99.90
31661;DHT22;18267;52.234;7.444;2022-09-09T04:50:42;16.20;99.90
31661;DHT22;18267;52.234;7.444;2022-09-09T04:53:07;16.30;99.90
31661;DHT22;18267;52.234;7.444;2022-09-09T04:55:34;16.30;99.90
31661;DHT22;18267;52.234;7.444;2022-09-09T04:58:07;16.20;99.90
31661;DHT22;18267;52.234;7.444;2022-09-09T05:00:37;16.20;99.90
31661;DHT22;18267;52.234;7.444;2022-09-09T05:03:06;16.20;99.90
31661;DHT22;18267;52.234;7.444;2022-09-09T05:05:32;16.20;99.90
31661;DHT22;18267;52.234;7.444;2022-09-09T05:08:05;16.10;99.90
31661;DHT22;18267;52.234;7.444;2022-09-09T05:10:31;16.10;99.90
31661;DHT22;18267;52.234;7.444;2022-09-09T05:12:57;16.10;99.90
31661;DHT22;18267;52.234;7.444;2022-09-09T05:15:23;16.10;99.90
31661;DHT22;18267;52.234;7.444;2022-09-09T05:17:49;16.10;99.90
31661;DHT22;18267;52.234;7.444;2022-09-09T05:20:14;16.10;99.90
31661;DHT22;18267;52.234;7.444;2022-09-09T05:22:40;16.10;99.90
31661;DHT22;18267;52.234;7.444;2022-09-09T05:25:06;16.20;99.90
31661;DHT22;18267;52.234;7.444;2022-09-09T05:27:33;16.10;99.90
31661;DHT22;18267;52.234;7.444;2022-09-09T05:29:59;16.10;99.90
31661;DHT22;18267;52.234;7.444;2022-09-09T05:32:24;16.20;99.90
31661;DHT22;18267;52.234;7.444;2022-09-09T05:34:50;16.20;99.90
31661;DHT22;18267;52.234;7.444;2022-09-09T05:37:16;16.20;99.90
31661;DHT22;18267;52.234;7.444;2022-09-09T05:39:42;16.20;99.90
31661;DHT22;18267;52.234;7.444;2022-09-09T05:42:07;16.30;99.90
31661;DHT22;18267;52.234;7.444;2022-09-09T05:44:33;16.30;99.90
31661;DHT22;18267;52.234;7.444;2022-09-09T05:46:59;16.30;99.90
31661;DHT22;18267;52.234;7.444;2022-09-09T05:49:24;16.30;99.90
31661;DHT22;18267;52.234;7.444;2022-09-09T05:51:50;16.30;99.90
31661;DHT22;18267;52.234;7.444;2022-09-09T05:54:16;16.40;99.90
31661;DHT22;18267;52.234;7.444;2022-09-09T05:56:42;16.30;99.90
31661;DHT22;18267;52.234;7.444;2022-09-09T05:59:08;16.40;99.90
31661;DHT22;18267;52.234;7.444;2022-09-09T06:01:35;16.50;99.90
31661;DHT22;18267;52.234;7.444;2022-09-09T06:04:02;16.50;99.90
31661;DHT22;18267;52.234;7.444;2022-09-09T06:06:35;16.50;99.90
31661;DHT22;18267;52.234;7.444;2022-09-09T06:09:07;16.50;99.90
31661;DHT22;18267;52.234;7.444;2022-09-09T06:11:36;16.50;99.90
31661;DHT22;18267;52.234;7.444;2022-09-09T06:14:02;16.60;99.90
31661;DHT22;18267;52.234;7.444;2022-09-09T06:16:28;16.60;99.90
31661;DHT22;18267;52.234;7.444;2022-09-09T06:18:55;16.50;99.90
31661;DHT22;18267;52.234;7.444;2022-09-09T06:21:26;16.50;99.90
31661;DHT22;18267;52.234;7.444;2022-09-09T06:23:52;16.50;99.90
31661;DHT22;18267;52.234;7.444;2022-09-09T06:26:23;16.50;99.90
31661;DHT22;18267;52.234;7.444;2022-09-09T06:28:52;16.60;99.90
31661;DHT22;18267;52.234;7.444;2022-09-09T06:31:20;16.60;99.90
31661;DHT22;18267;52.234;7.444;2022-09-09T06:33:47;16.70;99.90
31661;DHT22;18267;52.234;7.444;2022-09-09T06:36:17;16.70;99.90
31661;DHT22;18267;52.234;7.444;2022-09-09T06:38:43;16.80;99.90
31661;DHT22;18267;52.234;7.444;2022-09-09T06:41:10;16.80;99.90
31661;DHT22;18267;52.234;7.444;2022-09-09T06:43:36;16.90;99.90
31661;DHT22;18267;52.234;7.444;2022-09-09T06:46:08;17.00;99.90
31661;DHT22;18267;52.234;7.444;2022-09-09T06:48:34;16.90;99.90
31661;DHT22;18267;52.234;7.444;2022-09-09T06:51:05;16.90;99.90
31661;DHT22;18267;52.234;7.444;2022-09-09T06:53:32;16.90;99.90
31661;DHT22;18267;52.234;7.444;2022-09-09T06:56:00;16.90;99.90
31661;DHT22;18267;52.234;7.444;2022-09-09T06:58:27;16.90;99.90
31661;DHT22;18267;52.234;7.444;2022-09-09T07:01:02;16.90;99.90
31661;DHT22;18267;52.234;7.444;2022-09-09T07:03:28;17.00;99.90
31661;DHT22;18267;52.234;7.444;2022-09-09T07:05:55;17.00;99.90
31661;DHT22;18267;52.234;7.444;2022-09-09T07:08:22;17.00;99.90
31661;DHT22;18267;52.234;7.444;2022-09-09T07:10:47;17.10;99.90
31661;DHT22;18267;52.234;7.444;2022-09-09T07:13:13;17.10;99.90
31661;DHT22;18267;52.234;7.444;2022-09-09T07:15:41;17.10;99.90
31661;DHT22;18267;52.234;7.444;2022-09-09T07:18:06;17.20;99.90
31661;DHT22;18267;52.234;7.444;2022-09-09T07:20:32;17.20;99.90
31661;DHT22;18267;52.234;7.444;2022-09-09T07:22:57;17.30;99.90
31661;DHT22;18267;52.234;7.444;2022-09-09T07:25:24;17.40;99.90
31661;DHT22;18267;52.234;7.444;2022-09-09T07:27:53;17.50;99.90
31661;DHT22;18267;52.234;7.444;2022-09-09T07:30:20;17.50;99.90
31661;DHT22;18267;52.234;7.444;2022-09-09T07:32:45;17.50;99.90
31661;DHT22;18267;52.234;7.444;2022-09-09T07:35:11;17.70;99.90
31661;DHT22;18267;52.234;7.444;2022-09-09T07:37:37;17.70;99.90
31661;DHT22;18267;52.234;7.444;2022-09-09T07:40:03;17.80;99.90
31661;DHT22;18267;52.234;7.444;2022-09-09T07:42:29;17.80;99.90
31661;DHT22;18267;52.234;7.444;2022-09-09T07:44:54;17.80;99.90
31661;DHT22;18267;52.234;7.444;2022-09-09T07:47:20;17.80;99.90
31661;DHT22;18267;52.234;7.444;2022-09-09T07:49:46;17.70;99.90
31661;DHT22;18267;52.234;7.444;2022-09-09T07:52:12;17.80;99.90
31661;DHT22;18267;52.234;7.444;2022-09-09T07:54:38;17.80;99.90
31661;DHT22;18267;52.234;7.444;2022-09-09T07:57:03;17.80;99.90
31661;DHT22;18267;52.234;7.444;2022-09-09T07:59:29;17.80;99.90
31661;DHT22;18267;52.234;7.444;2022-09-09T08:01:55;18.00;99.90
31661;DHT22;18267;52.234;7.444;2022-09-09T08:04:23;17.90;99.90
31661;DHT22;18267;52.234;7.444;2022-09-09T08:06:55;18.00;99.90
31661;DHT22;18267;52.234;7.444;2022-09-09T08:09:21;18.10;99.90
31661;DHT22;18267;52.234;7.444;2022-09-09T08:11:47;18.20;99.90
31661;DHT22;18267;52.234;7.444;2022-09-09T08:14:13;18.20;99.90
31661;DHT22;18267;52.234;7.444;2022-09-09T08:16:45;18.30;99.90
31661;DHT22;18267;52.234;7.444;2022-09-09T08:19:11;18.30;99.90
31661;DHT22;18267;52.234;7.444;2022-09-09T08:21:38;18.40;99.90
31661;DHT22;18267;52.234;7.444;2022-09-09T08:24:05;18.40;99.90
31661;DHT22;18267;52.234;7.444;2022-09-09T08:26:35;18.40;99.90
31661;DHT22;18267;52.234;7.444;2022-09-09T08:29:03;18.50;99.90
31661;DHT22;18267;52.234;7.444;2022-09-09T08:31:34;18.50;99.90
31661;DHT22;18267;52.234;7.444;2022-09-09T08:34:00;18.50;99.90
31661;DHT22;18267;52.234;7.444;2022-09-09T08:36:29;18.60;99.90
31661;DHT22;18267;52.234;7.444;2022-09-09T08:38:57;18.60;99.90
31661;DHT22;18267;52.234;7.444;2022-09-09T08:50:21;18.60;99.90
31661;DHT22;18267;52.234;7.444;2022-09-09T08:53:05;18.70;99.90
31661;DHT22;18267;52.234;7.444;2022-09-09T08:55:54;18.60;99.90
31661;DHT22;18267;52.234;7.444;2022-09-09T08:58:21;18.70;99.90
31661;DHT22;18267;52.234;7.444;2022-09-09T09:09:11;18.90;99.90
31661;DHT22;18267;52.234;7.444;2022-09-09T09:11:44;18.90;99.90
31661;DHT22;18267;52.234;7.444;2022-09-09T09:14:21;19.00;99.90
31661;DHT22;18267;52.234;7.444;2022-09-09T09:19:26;19.10;99.90
31661;DHT22;18267;52.234;7.444;2022-09-09T09:22:13;19.10;99.90
31661;DHT22;18267;52.234;7.444;2022-09-09T09:30:04;19.20;99.90
31661;DHT22;18267;52.234;7.444;2022-09-09T09:32:33;19.20;99.90
31661;DHT22;18267;52.234;7.444;2022-09-09T09:35:02;19.20;99.90
31661;DHT22;18267;52.234;7.444;2022-09-09T09:37:33;19.30;99.90
31661;DHT22;18267;52.234;7.444;2022-09-09T09:42:57;19.40;99.90
31661;DHT22;18267;52.234;7.444;2022-09-09T09:48:05;19.60;99.90
31661;DHT22;18267;52.234;7.444;2022-09-09T09:50:32;19.60;99.90
31661;DHT22;18267;52.234;7.444;2022-09-09T09:53:02;19.70;99.90
31661;DHT22;18267;52.234;7.444;2022-09-09T09:55:30;19.70;99.90
31661;DHT22;18267;52.234;7.444;2022-09-09T09:58:06;19.80;99.90
31661;DHT22;18267;52.234;7.444;2022-09-09T10:00:33;19.90;99.90
31661;DHT22;18267;52.234;7.444;2022-09-09T10:03:00;19.90;99.90
31661;DHT22;18267;52.234;7.444;2022-09-09T10:05:30;20.00;99.90
31661;DHT22;18267;52.234;7.444;2022-09-09T10:08:14;20.10;99.90
31661;DHT22;18267;52.234;7.444;2022-09-09T10:13:47;20.30;99.90
31661;DHT22;18267;52.234;7.444;2022-09-09T10:16:29;20.40;99.90
31661;DHT22;18267;52.234;7.444;2022-09-09T10:19:06;20.30;99.90
31661;DHT22;18267;52.234;7.444;2022-09-09T10:21:48;20.30;99.90
31661;DHT22;18267;52.234;7.444;2022-09-09T10:30:04;20.20;99.90
31661;DHT22;18267;52.234;7.444;2022-09-09T10:38:42;19.90;99.90
31661;DHT22;18267;52.234;7.444;2022-09-09T10:52:07;20.30;99.90
31661;DHT22;18267;52.234;7.444;2022-09-09T10:59:58;20.40;99.90
31661;DHT22;18267;52.234;7.444;2022-09-09T11:02:33;20.40;99.90
31661;DHT22;18267;52.234;7.444;2022-09-09T11:05:44;20.30;99.90
31661;DHT22;18267;52.234;7.444;2022-09-09T11:08:10;20.30;99.90
31661;DHT22;18267;52.234;7.444;2022-09-09T11:13:14;20.40;99.90
31661;DHT22;18267;52.234;7.444;2022-09-09T11:15:53;20.40;99.90
31661;DHT22;18267;52.234;7.444;2022-09-09T11:18:21;20.40;99.90
31661;DHT22;18267;52.234;7.444;2022-09-09T11:20:54;20.40;99.90
31661;DHT22;18267;52.234;7.444;2022-09-09T11:23:27;20.40;99.90
31661;DHT22;18267;52.234;7.444;2022-09-09T11:26:00;20.40;99.90
31661;DHT22;18267;52.234;7.444;2022-09-09T11:28:49;20.50;99.90
31661;DHT22;18267;52.234;7.444;2022-09-09T11:34:17;20.70;99.90
31661;DHT22;18267;52.234;7.444;2022-09-09T11:42:28;20.70;99.90
31661;DHT22;18267;52.234;7.444;2022-09-09T11:44:54;20.80;99.90
31661;DHT22;18267;52.234;7.444;2022-09-09T11:47:27;20.80;99.90
31661;DHT22;18267;52.234;7.444;2022-09-09T11:50:32;20.80;99.90
31661;DHT22;18267;52.234;7.444;2022-09-09T11:53:25;20.90;99.90
31661;DHT22;18267;52.234;7.444;2022-09-09T11:56:10;20.80;99.90
31661;DHT22;18267;52.234;7.444;2022-09-09T11:58:40;20.80;99.90
31661;DHT22;18267;52.234;7.444;2022-09-09T12:01:14;20.90;99.90
31661;DHT22;18267;52.234;7.444;2022-09-09T12:03:54;20.80;99.90
31661;DHT22;18267;52.234;7.444;2022-09-09T12:09:47;20.80;99.90
31661;DHT22;18267;52.234;7.444;2022-09-09T12:14:59;20.70;99.90
31661;DHT22;18267;52.234;7.444;2022-09-09T12:17:28;20.70;99.90
31661;DHT22;18267;52.234;7.444;2022-09-09T12:20:21;20.80;99.90
31661;DHT22;18267;52.234;7.444;2022-09-09T12:28:23;20.80;99.90
31661;DHT22;18267;52.234;7.444;2022-09-09T12:33:37;20.90;99.90
31661;DHT22;18267;52.234;7.444;2022-09-09T12:36:11;20.80;99.90
31661;DHT22;18267;52.234;7.444;2022-09-09T12:38:40;20.80;99.90
31661;DHT22;18267;52.234;7.444;2022-09-09T12:41:15;20.70;99.90
31661;DHT22;18267;52.234;7.444;2022-09-09T12:43:45;20.70;99.90
31661;DHT22;18267;52.234;7.444;2022-09-09T12:46:20;20.50;99.90
31661;DHT22;18267;52.234;7.444;2022-09-09T12:48:47;20.30;99.90
31661;DHT22;18267;52.234;7.444;2022-09-09T12:51:24;20.30;99.90
31661;DHT22;18267;52.234;7.444;2022-09-09T12:53:51;20.20;99.90
31661;DHT22;18267;52.234;7.444;2022-09-09T12:56:22;20.30;99.90
31661;DHT22;18267;52.234;7.444;2022-09-09T12:58:50;20.40;99.90
31661;DHT22;18267;52.234;7.444;2022-09-09T13:01:26;20.50;99.90
31661;DHT22;18267;52.234;7.444;2022-09-09T13:03:54;20.70;99.90
31661;DHT22;18267;52.234;7.444;2022-09-09T13:06:23;20.70;99.90
31661;DHT22;18267;52.234;7.444;2022-09-09T13:08:50;20.70;99.90
31661;DHT22;18267;52.234;7.444;2022-09-09T13:11:38;20.60;99.90
31661;DHT22;18267;52.234;7.444;2022-09-09T13:14:05;20.80;99.90
31661;DHT22;18267;52.234;7.444;2022-09-09T13:16:34;20.80;99.90
31661;DHT22;18267;52.234;7.444;2022-09-09T13:19:08;20.80;99.90
31661;DHT22;18267;52.234;7.444;2022-09-09T13:21:37;21.00;99.90
31661;DHT22;18267;52.234;7.444;2022-09-09T13:26:57;21.00;99.90
31661;DHT22;18267;52.234;7.444;2022-09-09T13:29:23;21.00;99.90
31661;DHT22;18267;52.234;7.444;2022-09-09T13:31:50;21.00;99.90
31661;DHT22;18267;52.234;7.444;2022-09-09T13:34:34;20.90;99.90
31661;DHT22;18267;52.234;7.444;2022-09-09T13:37:13;20.90;99.90
31661;DHT22;18267;52.234;7.444;2022-09-09T13:39:40;20.90;99.90
31661;DHT22;18267;52.234;7.444;2022-09-09T13:42:29;20.90;99.90
31661;DHT22;18267;52.234;7.444;2022-09-09T13:44:56;20.90;99.90
31661;DHT22;18267;52.234;7.444;2022-09-09T13:49:55;20.90;99.90
31661;DHT22;18267;52.234;7.444;2022-09-09T13:52:21;20.80;99.90
31661;DHT22;18267;52.234;7.444;2022-09-09T13:54:51;20.80;99.90
31661;DHT22;18267;52.234;7.444;2022-09-09T13:57:24;20.60;99.90
31661;DHT22;18267;52.234;7.444;2022-09-09T13:59:52;20.50;99.90
31661;DHT22;18267;52.234;7.444;2022-09-09T14:02:18;20.50;99.90
31661;DHT22;18267;52.234;7.444;2022-09-09T14:04:45;20.30;99.90
31661;DHT22;18267;52.234;7.444;2022-09-09T14:07:12;20.30;99.90
31661;DHT22;18267;52.234;7.444;2022-09-09T14:09:40;20.40;99.90
31661;DHT22;18267;52.234;7.444;2022-09-09T14:12:28;20.40;99.90
31661;DHT22;18267;52.234;7.444;2022-09-09T14:15:35;20.50;99.90
31661;DHT22;18267;52.234;7.444;2022-09-09T14:18:01;20.50;99.90
31661;DHT22;18267;52.234;7.444;2022-09-09T14:20:27;20.60;99.90
31661;DHT22;18267;52.234;7.444;2022-09-09T14:22:53;20.50;99.90
31661;DHT22;18267;52.234;7.444;2022-09-09T14:25:19;20.50;99.90
31661;DHT22;18267;52.234;7.444;2022-09-09T14:27:46;20.40;99.90
31661;DHT22;18267;52.234;7.444;2022-09-09T14:30:12;20.20;99.90
31661;DHT22;18267;52.234;7.444;2022-09-09T14:32:39;20.00;99.90
31661;DHT22;18267;52.234;7.444;2022-09-09T14:35:06;19.90;99.90
31661;DHT22;18267;52.234;7.444;2022-09-09T14:37:33;19.80;99.90
31661;DHT22;18267;52.234;7.444;2022-09-09T14:40:07;19.60;99.90
31661;DHT22;18267;52.234;7.444;2022-09-09T14:42:47;19.50;99.90
31661;DHT22;18267;52.234;7.444;2022-09-09T14:45:25;19.20;99.90
31661;DHT22;18267;52.234;7.444;2022-09-09T14:47:54;19.10;99.90
31661;DHT22;18267;52.234;7.444;2022-09-09T14:50:31;19.00;99.90
31661;DHT22;18267;52.234;7.444;2022-09-09T14:53:04;19.00;99.90
31661;DHT22;18267;52.234;7.444;2022-09-09T14:55:35;19.00;99.90
31661;DHT22;18267;52.234;7.444;2022-09-09T14:58:03;18.90;99.90
31661;DHT22;18267;52.234;7.444;2022-09-09T15:00:32;18.90;99.90
31661;DHT22;18267;52.234;7.444;2022-09-09T15:03:21;18.80;99.90
31661;DHT22;18267;52.234;7.444;2022-09-09T15:05:54;18.80;99.90
31661;DHT22;18267;52.234;7.444;2022-09-09T15:08:21;18.80;99.90
31661;DHT22;18267;52.234;7.444;2022-09-09T15:10:50;18.80;99.90
31661;DHT22;18267;52.234;7.444;2022-09-09T15:13:21;18.70;99.90
31661;DHT22;18267;52.234;7.444;2022-09-09T15:15:48;18.90;99.90
31661;DHT22;18267;52.234;7.444;2022-09-09T15:18:16;18.90;99.90
31661;DHT22;18267;52.234;7.444;2022-09-09T15:20:45;18.90;99.90
31661;DHT22;18267;52.234;7.444;2022-09-09T15:23:12;19.10;99.90
31661;DHT22;18267;52.234;7.444;2022-09-09T15:26:01;19.20;99.90
31661;DHT22;18267;52.234;7.444;2022-09-09T15:28:26;19.20;99.90
31661;DHT22;18267;52.234;7.444;2022-09-09T15:30:53;19.30;99.90
31661;DHT22;18267;52.234;7.444;2022-09-09T15:33:21;19.40;99.90
31661;DHT22;18267;52.234;7.444;2022-09-09T15:35:48;19.50;99.90
31661;DHT22;18267;52.234;7.444;2022-09-09T15:38:17;19.50;99.90
31661;DHT22;18267;52.234;7.444;2022-09-09T15:40:44;19.60;99.90
31661;DHT22;18267;52.234;7.444;2022-09-09T15:43:12;19.60;99.90
31661;DHT22;18267;52.234;7.444;2022-09-09T15:45:39;19.60;99.90
31661;DHT22;18267;52.234;7.444;2022-09-09T15:48:05;19.50;99.90
31661;DHT22;18267;52.234;7.444;2022-09-09T15:50:31;19.50;99.90
31661;DHT22;18267;52.234;7.444;2022-09-09T15:53:00;19.50;99.90
31661;DHT22;18267;52.234;7.444;2022-09-09T15:55:26;19.50;99.90
31661;DHT22;18267;52.234;7.444;2022-09-09T15:57:55;19.40;99.90
31661;DHT22;18267;52.234;7.444;2022-09-09T16:00:23;19.30;99.90
31661;DHT22;18267;52.234;7.444;2022-09-09T16:02:49;19.30;99.90
31661;DHT22;18267;52.234;7.444;2022-09-09T16:05:15;19.30;99.90
31661;DHT22;18267;52.234;7.444;2022-09-09T16:07:41;19.30;99.90
31661;DHT22;18267;52.234;7.444;2022-09-09T16:10:09;19.30;99.90
31661;DHT22;18267;52.234;7.444;2022-09-09T16:12:36;19.30;99.90
31661;DHT22;18267;52.234;7.444;2022-09-09T16:15:03;19.30;99.90
31661;DHT22;18267;52.234;7.444;2022-09-09T16:17:30;19.30;99.90
31661;DHT22;18267;52.234;7.444;2022-09-09T16:20:02;19.30;99.90
31661;DHT22;18267;52.234;7.444;2022-09-09T16:22:30;19.40;99.90
31661;DHT22;18267;52.234;7.444;2022-09-09T16:24:57;19.30;99.90
31661;DHT22;18267;52.234;7.444;2022-09-09T16:27:23;19.30;99.90
31661;DHT22;18267;52.234;7.444;2022-09-09T16:29:48;19.30;99.90
31661;DHT22;18267;52.234;7.444;2022-09-09T16:32:14;19.30;99.90
31661;DHT22;18267;52.234;7.444;2022-09-09T16:34:40;19.20;99.90
31661;DHT22;18267;52.234;7.444;2022-09-09T16:37:06;19.20;99.90
31661;DHT22;18267;52.234;7.444;2022-09-09T16:39:32;19.20;99.90
31661;DHT22;18267;52.234;7.444;2022-09-09T16:42:00;19.30;99.90
31661;DHT22;18267;52.234;7.444;2022-09-09T16:44:26;19.20;99.90
31661;DHT22;18267;52.234;7.444;2022-09-09T16:46:53;19.20;99.90
31661;DHT22;18267;52.234;7.444;2022-09-09T16:49:20;19.20;99.90
31661;DHT22;18267;52.234;7.444;2022-09-09T16:51:48;19.10;99.90
31661;DHT22;18267;52.234;7.444;2022-09-09T16:54:16;19.20;99.90
31661;DHT22;18267;52.234;7.444;2022-09-09T16:56:45;19.20;99.90
31661;DHT22;18267;52.234;7.444;2022-09-09T16:59:14;19.00;99.90
31661;DHT22;18267;52.234;7.444;2022-09-09T17:01:41;19.00;99.90
31661;DHT22;18267;52.234;7.444;2022-09-09T17:04:13;19.00;99.90
31661;DHT22;18267;52.234;7.444;2022-09-09T17:06:41;18.80;99.90
31661;DHT22;18267;52.234;7.444;2022-09-09T17:09:09;18.90;99.90
31661;DHT22;18267;52.234;7.444;2022-09-09T17:11:39;18.80;99.90
31661;DHT22;18267;52.234;7.444;2022-09-09T17:14:07;18.80;99.90
31661;DHT22;18267;52.234;7.444;2022-09-09T17:16:35;18.80;99.90
31661;DHT22;18267;52.234;7.444;2022-09-09T17:19:02;18.80;99.90
31661;DHT22;18267;52.234;7.444;2022-09-09T17:21:30;18.80;99.90
31661;DHT22;18267;52.234;7.444;2022-09-09T17:23:57;18.70;99.90
31661;DHT22;18267;52.234;7.444;2022-09-09T17:26:25;18.70;99.90
31661;DHT22;18267;52.234;7.444;2022-09-09T17:28:55;18.60;99.90
31661;DHT22;18267;52.234;7.444;2022-09-09T17:31:22;18.60;99.90
31661;DHT22;18267;52.234;7.444;2022-09-09T17:33:49;18.50;99.90
31661;DHT22;18267;52.234;7.444;2022-09-09T17:36:23;18.50;99.90
31661;DHT22;18267;52.234;7.444;2022-09-09T17:38:49;18.50;99.90
31661;DHT22;18267;52.234;7.444;2022-09-09T17:41:17;18.50;99.90
31661;DHT22;18267;52.234;7.444;2022-09-09T17:43:43;18.50;99.90
31661;DHT22;18267;52.234;7.444;2022-09-09T17:48:38;18.40;99.90
31661;DHT22;18267;52.234;7.444;2022-09-09T17:51:06;18.30;99.90
31661;DHT22;18267;52.234;7.444;2022-09-09T17:53:40;18.30;99.90
31661;DHT22;18267;52.234;7.444;2022-09-09T17:56:08;18.30;99.90
31661;DHT22;18267;52.234;7.444;2022-09-09T17:58:35;18.30;99.90
31661;DHT22;18267;52.234;7.444;2022-09-09T18:01:11;18.40;99.90
31661;DHT22;18267;52.234;7.444;2022-09-09T18:03:42;18.30;99.90